sensor_id;sensor_type;location;lat;lon;timestamp;P1;durP1;ratioP1;P2;durP2;ratioP2
3309;SDS011;1667;53.238;10.394;2022-09-29T00:01:19;9.10;;;5.93;;
3309;SDS011;1667;53.238;10.394;2022-09-29T00:06:18;7.00;;;5.50;;
3309;SDS011;1667;53.238;10.394;2022-09-29T00:11:18;8.30;;;5.10;;
3309;SDS011;1667;53.238;10.394;2022-09-29T00:16:16;10.63;;;6.00;;
3309;SDS011;1667;53.238;10.394;2022-09-29T00:21:15;6.37;;;4.70;;
3309;SDS011;1667;53.238;10.394;2022-09-29T00:26:16;9.03;;;4.93;;
3309;SDS011;1667;53.238;10.394;2022-09-29T00:31:17;6.23;;;4.80;;
3309;SDS011;1667;53.238;10.394;2022-09-29T00:36:17;5.80;;;4.60;;
3309;SDS011;1667;53.238;10.394;2022-09-29T00:41:17;6.00;;;4.97;;
3309;SDS011;1667;53.238;10.394;2022-09-29T00:46:21;5.30;;;4.40;;
3309;SDS011;1667;53.238;10.394;2022-09-29T00:51:33;5.40;;;4.00;;
3309;SDS011;1667;53.238;10.394;2022-09-29T00:56:38;4.47;;;4.07;;
3309;SDS011;1667;53.238;10.394;2022-09-29T01:01:39;6.00;;;4.67;;
3309;SDS011;1667;53.238;10.394;2022-09-29T01:06:38;5.53;;;4.83;;
3309;SDS011;1667;53.238;10.394;2022-09-29T01:11:40;6.30;;;4.73;;
3309;SDS011;1667;53.238;10.394;2022-09-29T01:16:39;6.97;;;4.37;;
3309;SDS011;1667;53.238;10.394;2022-09-29T01:21:40;8.33;;;5.00;;
3309;SDS011;1667;53.238;10.394;2022-09-29T01:26:55;7.53;;;5.13;;
3309;SDS011;1667;53.238;10.394;2022-09-29T01:32:15;5.70;;;4.90;;
3309;SDS011;1667;53.238;10.394;2022-09-29T01:37:20;6.23;;;5.00;;
3309;SDS011;1667;53.238;10.394;2022-09-29T01:42:28;5.53;;;4.40;;
3309;SDS011;1667;53.238;10.394;2022-09-29T01:47:34;14.80;;;4.77;;
3309;SDS011;1667;53.238;10.394;2022-09-29T01:52:38;9.70;;;5.50;;
3309;SDS011;1667;53.238;10.394;2022-09-29T01:57:41;3.83;;;3.40;;
3309;SDS011;1667;53.238;10.394;2022-09-29T02:02:45;8.77;;;5.20;;
3309;SDS011;1667;53.238;10.394;2022-09-29T02:07:47;5.97;;;5.35;;
3309;SDS011;1667;53.238;10.394;2022-09-29T02:12:46;10.97;;;5.53;;
3309;SDS011;1667;53.238;10.394;2022-09-29T02:17:48;7.50;;;5.40;;
3309;SDS011;1667;53.238;10.394;2022-09-29T02:22:48;7.97;;;5.33;;
3309;SDS011;1667;53.238;10.394;2022-09-29T02:27:47;6.43;;;5.07;;
3309;SDS011;1667;53.238;10.394;2022-09-29T02:32:47;6.27;;;4.87;;
3309;SDS011;1667;53.238;10.394;2022-09-29T02:37:52;13.43;;;4.97;;
3309;SDS011;1667;53.238;10.394;2022-09-29T02:43:06;9.40;;;6.03;;
3309;SDS011;1667;53.238;10.394;2022-09-29T02:48:23;6.23;;;5.03;;
3309;SDS011;1667;53.238;10.394;2022-09-29T02:53:38;7.30;;;5.20;;
3309;SDS011;1667;53.238;10.394;2022-09-29T02:58:46;8.67;;;5.70;;
3309;SDS011;1667;53.238;10.394;2022-09-29T03:03:49;8.00;;;5.60;;
3309;SDS011;1667;53.238;10.394;2022-09-29T03:08:48;7.20;;;5.20;;
3309;SDS011;1667;53.238;10.394;2022-09-29T03:13:46;8.20;;;6.10;;
3309;SDS011;1667;53.238;10.394;2022-09-29T03:18:44;7.97;;;5.47;;
3309;SDS011;1667;53.238;10.394;2022-09-29T03:23:43;8.60;;;6.30;;
3309;SDS011;1667;53.238;10.394;2022-09-29T03:28:42;10.23;;;6.00;;
3309;SDS011;1667;53.238;10.394;2022-09-29T03:33:40;7.27;;;5.57;;
3309;SDS011;1667;53.238;10.394;2022-09-29T03:38:39;9.13;;;6.07;;
3309;SDS011;1667;53.238;10.394;2022-09-29T03:43:38;9.10;;;5.73;;
3309;SDS011;1667;53.238;10.394;2022-09-29T03:48:36;5.53;;;4.17;;
3309;SDS011;1667;53.238;10.394;2022-09-29T03:53:36;5.97;;;4.70;;
3309;SDS011;1667;53.238;10.394;2022-09-29T03:58:34;5.43;;;3.60;;
3309;SDS011;1667;53.238;10.394;2022-09-29T04:03:34;9.77;;;6.20;;
3309;SDS011;1667;53.238;10.394;2022-09-29T04:08:34;6.80;;;5.13;;
3309;SDS011;1667;53.238;10.394;2022-09-29T04:13:32;7.23;;;4.63;;
3309;SDS011;1667;53.238;10.394;2022-09-29T04:18:30;5.67;;;4.70;;
3309;SDS011;1667;53.238;10.394;2022-09-29T04:23:30;6.43;;;4.93;;
3309;SDS011;1667;53.238;10.394;2022-09-29T04:28:29;5.80;;;5.07;;
3309;SDS011;1667;53.238;10.394;2022-09-29T04:33:28;3.73;;;3.33;;
3309;SDS011;1667;53.238;10.394;2022-09-29T04:38:26;6.23;;;4.97;;
3309;SDS011;1667;53.238;10.394;2022-09-29T04:43:26;8.73;;;6.03;;
3309;SDS011;1667;53.238;10.394;2022-09-29T04:48:24;10.00;;;6.07;;
3309;SDS011;1667;53.238;10.394;2022-09-29T04:53:23;4.37;;;3.37;;
3309;SDS011;1667;53.238;10.394;2022-09-29T04:58:21;5.87;;;4.07;;
3309;SDS011;1667;53.238;10.394;2022-09-29T05:03:20;8.03;;;5.87;;
3309;SDS011;1667;53.238;10.394;2022-09-29T05:08:19;9.53;;;6.00;;
3309;SDS011;1667;53.238;10.394;2022-09-29T05:13:17;7.57;;;5.37;;
3309;SDS011;1667;53.238;10.394;2022-09-29T05:18:15;7.80;;;6.23;;
3309;SDS011;1667;53.238;10.394;2022-09-29T05:23:14;6.57;;;4.90;;
3309;SDS011;1667;53.238;10.394;2022-09-29T05:28:13;6.57;;;4.63;;
3309;SDS011;1667;53.238;10.394;2022-09-29T05:33:11;9.20;;;7.50;;
3309;SDS011;1667;53.238;10.394;2022-09-29T05:38:09;9.90;;;6.70;;
3309;SDS011;1667;53.238;10.394;2022-09-29T05:43:09;11.17;;;6.80;;
3309;SDS011;1667;53.238;10.394;2022-09-29T05:48:08;9.63;;;6.73;;
3309;SDS011;1667;53.238;10.394;2022-09-29T05:53:06;12.67;;;7.60;;
3309;SDS011;1667;53.238;10.394;2022-09-29T05:58:04;7.90;;;6.07;;
3309;SDS011;1667;53.238;10.394;2022-09-29T06:03:04;7.00;;;4.80;;
3309;SDS011;1667;53.238;10.394;2022-09-29T06:08:02;6.67;;;5.30;;
3309;SDS011;1667;53.238;10.394;2022-09-29T06:13:01;13.70;;;7.27;;
3309;SDS011;1667;53.238;10.394;2022-09-29T06:17:59;6.10;;;5.47;;
3309;SDS011;1667;53.238;10.394;2022-09-29T06:22:59;6.33;;;5.00;;
3309;SDS011;1667;53.238;10.394;2022-09-29T06:27:57;7.90;;;6.10;;
3309;SDS011;1667;53.238;10.394;2022-09-29T06:32:55;14.47;;;8.30;;
3309;SDS011;1667;53.238;10.394;2022-09-29T06:37:54;9.50;;;5.70;;
3309;SDS011;1667;53.238;10.394;2022-09-29T06:42:53;20.73;;;10.73;;
3309;SDS011;1667;53.238;10.394;2022-09-29T06:47:56;13.90;;;9.00;;
3309;SDS011;1667;53.238;10.394;2022-09-29T06:52:54;16.60;;;9.70;;
3309;SDS011;1667;53.238;10.394;2022-09-29T06:58:01;13.77;;;8.03;;
3309;SDS011;1667;53.238;10.394;2022-09-29T07:03:00;13.87;;;8.27;;
3309;SDS011;1667;53.238;10.394;2022-09-29T07:07:58;19.53;;;10.07;;
3309;SDS011;1667;53.238;10.394;2022-09-29T07:12:57;12.63;;;8.10;;
3309;SDS011;1667;53.238;10.394;2022-09-29T07:17:56;18.73;;;9.20;;
3309;SDS011;1667;53.238;10.394;2022-09-29T07:22:55;21.77;;;12.50;;
3309;SDS011;1667;53.238;10.394;2022-09-29T07:27:53;14.57;;;9.03;;
3309;SDS011;1667;53.238;10.394;2022-09-29T07:32:51;13.80;;;9.50;;
3309;SDS011;1667;53.238;10.394;2022-09-29T07:37:58;17.03;;;11.17;;
3309;SDS011;1667;53.238;10.394;2022-09-29T07:42:56;17.37;;;10.77;;
3309;SDS011;1667;53.238;10.394;2022-09-29T07:47:56;12.00;;;8.40;;
3309;SDS011;1667;53.238;10.394;2022-09-29T07:52:55;16.67;;;10.13;;
3309;SDS011;1667;53.238;10.394;2022-09-29T07:57:54;15.40;;;9.90;;
3309;SDS011;1667;53.238;10.394;2022-09-29T08:02:52;17.43;;;11.77;;
3309;SDS011;1667;53.238;10.394;2022-09-29T08:07:50;18.93;;;12.13;;
3309;SDS011;1667;53.238;10.394;2022-09-29T08:12:49;13.53;;;8.47;;
3309;SDS011;1667;53.238;10.394;2022-09-29T08:17:48;14.67;;;9.50;;
3309;SDS011;1667;53.238;10.394;2022-09-29T08:22:48;18.10;;;13.47;;
3309;SDS011;1667;53.238;10.394;2022-09-29T08:27:47;12.87;;;8.90;;
3309;SDS011;1667;53.238;10.394;2022-09-29T08:32:52;15.20;;;9.60;;
3309;SDS011;1667;53.238;10.394;2022-09-29T08:37:52;11.23;;;7.87;;
3309;SDS011;1667;53.238;10.394;2022-09-29T08:42:53;19.70;;;12.77;;
3309;SDS011;1667;53.238;10.394;2022-09-29T08:48:02;12.20;;;8.17;;
3309;SDS011;1667;53.238;10.394;2022-09-29T08:53:18;12.00;;;8.50;;
3309;SDS011;1667;53.238;10.394;2022-09-29T08:58:24;10.93;;;8.37;;
3309;SDS011;1667;53.238;10.394;2022-09-29T09:03:27;11.70;;;8.00;;
3309;SDS011;1667;53.238;10.394;2022-09-29T09:08:52;14.87;;;9.63;;
3309;SDS011;1667;53.238;10.394;2022-09-29T09:14:10;6.97;;;5.77;;
3309;SDS011;1667;53.238;10.394;2022-09-29T09:19:35;8.17;;;6.30;;
3309;SDS011;1667;53.238;10.394;2022-09-29T09:24:44;16.83;;;10.43;;
3309;SDS011;1667;53.238;10.394;2022-09-29T09:29:45;8.40;;;6.67;;
3309;SDS011;1667;53.238;10.394;2022-09-29T09:34:46;14.83;;;10.37;;
3309;SDS011;1667;53.238;10.394;2022-09-29T09:39:55;10.53;;;7.47;;
3309;SDS011;1667;53.238;10.394;2022-09-29T09:44:58;9.70;;;7.10;;
3309;SDS011;1667;53.238;10.394;2022-09-29T09:50:03;9.67;;;7.00;;
3309;SDS011;1667;53.238;10.394;2022-09-29T09:55:13;15.13;;;9.37;;
3309;SDS011;1667;53.238;10.394;2022-09-29T10:00:13;12.50;;;8.43;;
3309;SDS011;1667;53.238;10.394;2022-09-29T10:05:16;7.60;;;6.23;;
3309;SDS011;1667;53.238;10.394;2022-09-29T10:10:17;9.57;;;6.43;;
3309;SDS011;1667;53.238;10.394;2022-09-29T10:15:19;7.57;;;5.93;;
3309;SDS011;1667;53.238;10.394;2022-09-29T10:20:30;6.40;;;4.70;;
3309;SDS011;1667;53.238;10.394;2022-09-29T10:25:30;8.60;;;6.23;;
3309;SDS011;1667;53.238;10.394;2022-09-29T10:30:30;4.83;;;4.30;;
3309;SDS011;1667;53.238;10.394;2022-09-29T10:35:34;5.43;;;4.60;;
3309;SDS011;1667;53.238;10.394;2022-09-29T10:40:35;7.43;;;5.37;;
3309;SDS011;1667;53.238;10.394;2022-09-29T10:45:35;12.43;;;5.60;;
3309;SDS011;1667;53.238;10.394;2022-09-29T10:50:49;11.10;;;7.40;;
3309;SDS011;1667;53.238;10.394;2022-09-29T10:55:51;5.50;;;4.90;;
3309;SDS011;1667;53.238;10.394;2022-09-29T11:01:00;6.83;;;5.00;;
3309;SDS011;1667;53.238;10.394;2022-09-29T11:06:05;12.63;;;7.40;;
3309;SDS011;1667;53.238;10.394;2022-09-29T11:11:18;6.13;;;4.30;;
3309;SDS011;1667;53.238;10.394;2022-09-29T11:16:23;9.23;;;6.20;;
3309;SDS011;1667;53.238;10.394;2022-09-29T11:27:09;9.10;;;6.47;;
3309;SDS011;1667;53.238;10.394;2022-09-29T11:32:24;10.93;;;7.73;;
3309;SDS011;1667;53.238;10.394;2022-09-29T11:37:35;8.40;;;6.17;;
3309;SDS011;1667;53.238;10.394;2022-09-29T11:43:01;7.57;;;5.10;;
3309;SDS011;1667;53.238;10.394;2022-09-29T11:48:19;13.73;;;6.67;;
3309;SDS011;1667;53.238;10.394;2022-09-29T11:53:32;7.43;;;4.93;;
3309;SDS011;1667;53.238;10.394;2022-09-29T11:58:44;11.07;;;7.60;;
3309;SDS011;1667;53.238;10.394;2022-09-29T12:03:57;4.93;;;4.10;;
3309;SDS011;1667;53.238;10.394;2022-09-29T12:09:17;4.40;;;3.90;;
3309;SDS011;1667;53.238;10.394;2022-09-29T12:14:27;4.17;;;3.77;;
3309;SDS011;1667;53.238;10.394;2022-09-29T12:19:36;4.20;;;3.80;;
3309;SDS011;1667;53.238;10.394;2022-09-29T12:24:39;9.40;;;5.10;;
3309;SDS011;1667;53.238;10.394;2022-09-29T12:29:41;5.73;;;4.27;;
3309;SDS011;1667;53.238;10.394;2022-09-29T12:34:45;3.93;;;3.17;;
3309;SDS011;1667;53.238;10.394;2022-09-29T12:39:49;6.43;;;3.90;;
3309;SDS011;1667;53.238;10.394;2022-09-29T12:44:56;5.47;;;4.70;;
3309;SDS011;1667;53.238;10.394;2022-09-29T12:50:08;2.80;;;2.57;;
3309;SDS011;1667;53.238;10.394;2022-09-29T12:55:13;5.30;;;3.50;;
3309;SDS011;1667;53.238;10.394;2022-09-29T13:00:17;2.87;;;2.53;;
3309;SDS011;1667;53.238;10.394;2022-09-29T13:05:20;4.77;;;3.23;;
3309;SDS011;1667;53.238;10.394;2022-09-29T13:16:06;3.17;;;2.50;;
3309;SDS011;1667;53.238;10.394;2022-09-29T13:21:17;2.67;;;2.47;;
3309;SDS011;1667;53.238;10.394;2022-09-29T13:26:25;4.17;;;2.90;;
3309;SDS011;1667;53.238;10.394;2022-09-29T13:31:35;3.73;;;2.30;;
3309;SDS011;1667;53.238;10.394;2022-09-29T13:36:36;4.03;;;3.50;;
3309;SDS011;1667;53.238;10.394;2022-09-29T13:41:38;3.40;;;3.10;;
3309;SDS011;1667;53.238;10.394;2022-09-29T13:46:38;2.50;;;2.27;;
3309;SDS011;1667;53.238;10.394;2022-09-29T13:51:46;2.80;;;2.60;;
3309;SDS011;1667;53.238;10.394;2022-09-29T13:56:46;2.60;;;2.40;;
3309;SDS011;1667;53.238;10.394;2022-09-29T14:01:47;4.13;;;1.80;;
3309;SDS011;1667;53.238;10.394;2022-09-29T14:06:46;2.47;;;2.20;;
3309;SDS011;1667;53.238;10.394;2022-09-29T14:11:46;3.67;;;2.20;;
3309;SDS011;1667;53.238;10.394;2022-09-29T14:16:52;5.00;;;2.77;;
3309;SDS011;1667;53.238;10.394;2022-09-29T14:21:54;3.60;;;2.77;;
3309;SDS011;1667;53.238;10.394;2022-09-29T14:26:53;4.10;;;3.30;;
3309;SDS011;1667;53.238;10.394;2022-09-29T14:32:35;3.23;;;2.90;;
3309;SDS011;1667;53.238;10.394;2022-09-29T14:37:37;4.70;;;4.07;;
3309;SDS011;1667;53.238;10.394;2022-09-29T14:42:36;4.53;;;4.13;;
3309;SDS011;1667;53.238;10.394;2022-09-29T14:47:36;1.67;;;1.57;;
3309;SDS011;1667;53.238;10.394;2022-09-29T14:52:59;6.53;;;4.33;;
3309;SDS011;1667;53.238;10.394;2022-09-29T14:58:08;4.37;;;3.97;;
3309;SDS011;1667;53.238;10.394;2022-09-29T15:03:20;5.23;;;4.47;;
3309;SDS011;1667;53.238;10.394;2022-09-29T15:08:26;3.20;;;2.90;;
3309;SDS011;1667;53.238;10.394;2022-09-29T15:13:27;2.30;;;2.10;;
3309;SDS011;1667;53.238;10.394;2022-09-29T15:18:35;3.73;;;3.43;;
3309;SDS011;1667;53.238;10.394;2022-09-29T15:23:59;2.97;;;2.50;;
3309;SDS011;1667;53.238;10.394;2022-09-29T15:29:09;2.10;;;2.00;;
3309;SDS011;1667;53.238;10.394;2022-09-29T15:34:16;3.83;;;3.30;;
3309;SDS011;1667;53.238;10.394;2022-09-29T15:44:45;26.77;;;4.77;;
3309;SDS011;1667;53.238;10.394;2022-09-29T15:49:52;4.50;;;2.97;;
3309;SDS011;1667;53.238;10.394;2022-09-29T15:54:52;3.57;;;2.90;;
3309;SDS011;1667;53.238;10.394;2022-09-29T15:59:52;2.77;;;2.40;;
3309;SDS011;1667;53.238;10.394;2022-09-29T16:04:53;3.87;;;2.97;;
3309;SDS011;1667;53.238;10.394;2022-09-29T16:09:57;4.80;;;2.90;;
3309;SDS011;1667;53.238;10.394;2022-09-29T16:14:59;2.60;;;2.40;;
3309;SDS011;1667;53.238;10.394;2022-09-29T16:19:58;2.83;;;2.63;;
3309;SDS011;1667;53.238;10.394;2022-09-29T16:25:07;2.80;;;2.60;;
3309;SDS011;1667;53.238;10.394;2022-09-29T16:30:16;4.37;;;3.97;;
3309;SDS011;1667;53.238;10.394;2022-09-29T16:35:40;3.63;;;3.33;;
3309;SDS011;1667;53.238;10.394;2022-09-29T16:40:44;3.70;;;2.83;;
3309;SDS011;1667;53.238;10.394;2022-09-29T16:45:44;4.87;;;3.93;;
3309;SDS011;1667;53.238;10.394;2022-09-29T16:50:47;6.53;;;4.87;;
3309;SDS011;1667;53.238;10.394;2022-09-29T16:55:53;5.60;;;3.93;;
3309;SDS011;1667;53.238;10.394;2022-09-29T17:00:53;6.77;;;3.80;;
3309;SDS011;1667;53.238;10.394;2022-09-29T17:05:53;4.50;;;3.77;;
3309;SDS011;1667;53.238;10.394;2022-09-29T17:10:52;6.03;;;3.83;;
3309;SDS011;1667;53.238;10.394;2022-09-29T17:15:52;3.27;;;2.60;;
3309;SDS011;1667;53.238;10.394;2022-09-29T17:20:50;3.60;;;3.30;;
3309;SDS011;1667;53.238;10.394;2022-09-29T17:25:49;3.60;;;3.30;;
3309;SDS011;1667;53.238;10.394;2022-09-29T17:31:08;2.60;;;2.40;;
3309;SDS011;1667;53.238;10.394;2022-09-29T17:36:09;3.63;;;2.87;;
3309;SDS011;1667;53.238;10.394;2022-09-29T17:41:11;2.40;;;2.20;;
3309;SDS011;1667;53.238;10.394;2022-09-29T17:46:13;3.50;;;3.03;;
3309;SDS011;1667;53.238;10.394;2022-09-29T17:51:12;3.47;;;2.93;;
3309;SDS011;1667;53.238;10.394;2022-09-29T17:56:16;3.20;;;2.10;;
3309;SDS011;1667;53.238;10.394;2022-09-29T18:01:21;3.10;;;2.90;;
3309;SDS011;1667;53.238;10.394;2022-09-29T18:06:21;2.50;;;2.00;;
3309;SDS011;1667;53.238;10.394;2022-09-29T18:11:23;2.60;;;2.40;;
3309;SDS011;1667;53.238;10.394;2022-09-29T18:16:22;1.80;;;1.70;;
3309;SDS011;1667;53.238;10.394;2022-09-29T18:21:21;1.50;;;1.40;;
3309;SDS011;1667;53.238;10.394;2022-09-29T18:26:19;1.90;;;1.80;;
3309;SDS011;1667;53.238;10.394;2022-09-29T18:31:20;4.33;;;3.30;;
3309;SDS011;1667;53.238;10.394;2022-09-29T18:36:21;2.73;;;2.53;;
3309;SDS011;1667;53.238;10.394;2022-09-29T18:41:19;2.58;;;2.38;;
3309;SDS011;1667;53.238;10.394;2022-09-29T18:46:19;3.30;;;3.00;;
3309;SDS011;1667;53.238;10.394;2022-09-29T18:51:18;5.67;;;2.00;;
3309;SDS011;1667;53.238;10.394;2022-09-29T18:56:17;2.10;;;2.00;;
3309;SDS011;1667;53.238;10.394;2022-09-29T19:01:16;2.47;;;2.27;;
3309;SDS011;1667;53.238;10.394;2022-09-29T19:06:18;2.50;;;2.07;;
3309;SDS011;1667;53.238;10.394;2022-09-29T19:11:17;4.20;;;3.80;;
3309;SDS011;1667;53.238;10.394;2022-09-29T19:16:16;4.27;;;3.33;;
3309;SDS011;1667;53.238;10.394;2022-09-29T19:21:15;3.20;;;2.83;;
3309;SDS011;1667;53.238;10.394;2022-09-29T19:26:15;5.33;;;4.70;;
3309;SDS011;1667;53.238;10.394;2022-09-29T19:31:17;5.43;;;4.90;;
3309;SDS011;1667;53.238;10.394;2022-09-29T19:36:16;4.80;;;4.17;;
3309;SDS011;1667;53.238;10.394;2022-09-29T19:41:19;5.87;;;5.27;;
3309;SDS011;1667;53.238;10.394;2022-09-29T19:46:18;5.67;;;5.13;;
3309;SDS011;1667;53.238;10.394;2022-09-29T19:51:17;7.00;;;5.20;;
3309;SDS011;1667;53.238;10.394;2022-09-29T19:56:34;9.70;;;5.47;;
3309;SDS011;1667;53.238;10.394;2022-09-29T20:01:34;4.40;;;4.00;;
3309;SDS011;1667;53.238;10.394;2022-09-29T20:06:32;6.47;;;5.30;;
3309;SDS011;1667;53.238;10.394;2022-09-29T20:11:31;3.23;;;2.93;;
3309;SDS011;1667;53.238;10.394;2022-09-29T20:16:34;10.30;;;6.40;;
3309;SDS011;1667;53.238;10.394;2022-09-29T20:21:34;13.60;;;6.07;;
3309;SDS011;1667;53.238;10.394;2022-09-29T20:26:34;18.13;;;10.43;;
3309;SDS011;1667;53.238;10.394;2022-09-29T20:31:36;10.77;;;8.20;;
3309;SDS011;1667;53.238;10.394;2022-09-29T20:36:34;8.07;;;6.50;;
3309;SDS011;1667;53.238;10.394;2022-09-29T20:41:32;8.57;;;5.20;;
3309;SDS011;1667;53.238;10.394;2022-09-29T20:46:31;6.47;;;5.30;;
3309;SDS011;1667;53.238;10.394;2022-09-29T20:51:31;5.57;;;5.00;;
3309;SDS011;1667;53.238;10.394;2022-09-29T20:56:33;5.20;;;4.70;;
3309;SDS011;1667;53.238;10.394;2022-09-29T21:01:37;6.57;;;3.97;;
3309;SDS011;1667;53.238;10.394;2022-09-29T21:06:38;8.27;;;6.50;;
3309;SDS011;1667;53.238;10.394;2022-09-29T21:11:37;12.10;;;6.90;;
3309;SDS011;1667;53.238;10.394;2022-09-29T21:16:38;7.03;;;5.90;;
3309;SDS011;1667;53.238;10.394;2022-09-29T21:21:38;4.00;;;3.70;;
3309;SDS011;1667;53.238;10.394;2022-09-29T21:26:37;6.87;;;4.20;;
3309;SDS011;1667;53.238;10.394;2022-09-29T21:31:35;6.80;;;4.57;;
3309;SDS011;1667;53.238;10.394;2022-09-29T21:36:34;5.57;;;4.00;;
3309;SDS011;1667;53.238;10.394;2022-09-29T21:41:35;2.97;;;2.67;;
3309;SDS011;1667;53.238;10.394;2022-09-29T21:46:34;4.23;;;3.80;;
3309;SDS011;1667;53.238;10.394;2022-09-29T21:51:33;3.90;;;3.50;;
3309;SDS011;1667;53.238;10.394;2022-09-29T21:56:33;2.77;;;2.57;;
3309;SDS011;1667;53.238;10.394;2022-09-29T22:01:36;3.70;;;2.40;;
3309;SDS011;1667;53.238;10.394;2022-09-29T22:06:35;4.13;;;2.90;;
3309;SDS011;1667;53.238;10.394;2022-09-29T22:11:36;3.93;;;2.70;;
3309;SDS011;1667;53.238;10.394;2022-09-29T22:16:38;4.47;;;3.20;;
3309;SDS011;1667;53.238;10.394;2022-09-29T22:21:36;2.60;;;2.40;;
3309;SDS011;1667;53.238;10.394;2022-09-29T22:26:37;4.83;;;3.83;;
3309;SDS011;1667;53.238;10.394;2022-09-29T22:31:36;3.67;;;3.37;;
3309;SDS011;1667;53.238;10.394;2022-09-29T22:36:36;4.40;;;4.00;;
3309;SDS011;1667;53.238;10.394;2022-09-29T22:41:34;5.40;;;4.90;;
3309;SDS011;1667;53.238;10.394;2022-09-29T22:46:39;5.50;;;4.30;;
3309;SDS011;1667;53.238;10.394;2022-09-29T22:51:37;4.03;;;3.73;;
3309;SDS011;1667;53.238;10.394;2022-09-29T22:56:35;3.27;;;2.97;;
3309;SDS011;1667;53.238;10.394;2022-09-29T23:01:36;3.70;;;3.10;;
3309;SDS011;1667;53.238;10.394;2022-09-29T23:06:34;3.90;;;3.53;;
3309;SDS011;1667;53.238;10.394;2022-09-29T23:11:32;3.50;;;3.20;;
3309;SDS011;1667;53.238;10.394;2022-09-29T23:16:31;4.63;;;4.13;;
3309;SDS011;1667;53.238;10.394;2022-09-29T23:21:31;4.80;;;3.77;;
3309;SDS011;1667;53.238;10.394;2022-09-29T23:26:30;2.97;;;2.40;;
3309;SDS011;1667;53.238;10.394;2022-09-29T23:31:28;3.83;;;3.20;;
3309;SDS011;1667;53.238;10.394;2022-09-29T23:36:27;2.73;;;2.53;;
3309;SDS011;1667;53.238;10.394;2022-09-29T23:41:27;6.30;;;3.90;;
3309;SDS011;1667;53.238;10.394;2022-09-29T23:46:27;4.20;;;3.13;;
3309;SDS011;1667;53.238;10.394;2022-09-29T23:51:27;3.40;;;2.57;;
3309;SDS011;1667;53.238;10.394;2022-09-29T23:56:28;3.43;;;3.23;;
